sensor_id;sensor_type;location;lat;lon;timestamp;pressure;altitude;pressure_sealevel;temperature;humidity
63097;BME280;49185;42.320;23.198;2023-04-07T00:00:00;94656.81;;;2.03;58.56
63097;BME280;49185;42.320;23.198;2023-04-07T00:02:26;94655.78;;;1.98;59.36
63097;BME280;49185;42.320;23.198;2023-04-07T00:04:51;94645.66;;;1.40;63.65
63097;BME280;49185;42.320;23.198;2023-04-07T00:07:17;94648.97;;;0.92;66.44
63097;BME280;49185;42.320;23.198;2023-04-07T00:09:42;94640.53;;;1.66;63.26
63097;BME280;49185;42.320;23.198;2023-04-07T00:12:07;94639.78;;;1.86;57.13
63097;BME280;49185;42.320;23.198;2023-04-07T00:14:33;94646.41;;;1.68;59.10
63097;BME280;49185;42.320;23.198;2023-04-07T00:16:59;94641.28;;;1.54;60.90
63097;BME280;49185;42.320;23.198;2023-04-07T00:19:24;94642.25;;;1.94;59.27
63097;BME280;49185;42.320;23.198;2023-04-07T00:21:50;94649.91;;;1.89;61.53
63097;BME280;49185;42.320;23.198;2023-04-07T00:24:15;94649.72;;;1.90;60.63
63097;BME280;49185;42.320;23.198;2023-04-07T00:26:40;94649.84;;;1.69;61.80
63097;BME280;49185;42.320;23.198;2023-04-07T00:29:06;94645.44;;;1.41;62.17
63097;BME280;49185;42.320;23.198;2023-04-07T00:31:31;94648.72;;;1.15;63.71
63097;BME280;49185;42.320;23.198;2023-04-07T00:33:57;94650.53;;;1.98;61.36
63097;BME280;49185;42.320;23.198;2023-04-07T00:36:22;94645.69;;;1.95;60.42
63097;BME280;49185;42.320;23.198;2023-04-07T00:38:48;94649.38;;;1.59;62.02
63097;BME280;49185;42.320;23.198;2023-04-07T00:41:13;94644.38;;;1.29;62.17
63097;BME280;49185;42.320;23.198;2023-04-07T00:43:39;94653.09;;;1.01;64.04
63097;BME280;49185;42.320;23.198;2023-04-07T00:46:04;94648.19;;;1.26;63.98
63097;BME280;49185;42.320;23.198;2023-04-07T00:48:30;94653.88;;;1.71;62.46
63097;BME280;49185;42.320;23.198;2023-04-07T00:50:56;94653.78;;;1.51;63.43
63097;BME280;49185;42.320;23.198;2023-04-07T00:53:21;94646.66;;;1.87;60.74
63097;BME280;49185;42.320;23.198;2023-04-07T00:55:47;94649.16;;;2.08;58.88
63097;BME280;49185;42.320;23.198;2023-04-07T00:58:12;94651.63;;;1.62;60.14
63097;BME280;49185;42.320;23.198;2023-04-07T01:00:48;94646.34;;;1.20;61.44
63097;BME280;49185;42.320;23.198;2023-04-07T01:03:19;94654.31;;;1.05;63.80
63097;BME280;49185;42.320;23.198;2023-04-07T01:05:53;94654.69;;;1.02;64.68
63097;BME280;49185;42.320;23.198;2023-04-07T01:08:23;94649.41;;;0.95;65.47
63097;BME280;49185;42.320;23.198;2023-04-07T01:10:55;94647.47;;;1.87;63.43
63097;BME280;49185;42.320;23.198;2023-04-07T01:13:49;94646.22;;;1.77;63.34
63097;BME280;49185;42.320;23.198;2023-04-07T01:16:42;94648.25;;;1.33;63.00
63097;BME280;49185;42.320;23.198;2023-04-07T01:19:22;94650.72;;;1.13;62.84
63097;BME280;49185;42.320;23.198;2023-04-07T01:21:55;94644.13;;;1.17;64.67
63097;BME280;49185;42.320;23.198;2023-04-07T01:24:56;94642.28;;;2.01;61.48
63097;BME280;49185;42.320;23.198;2023-04-07T01:30:16;94638.13;;;1.71;62.13
63097;BME280;49185;42.320;23.198;2023-04-07T01:32:44;94639.91;;;1.23;64.18
63097;BME280;49185;42.320;23.198;2023-04-07T01:35:14;94654.63;;;0.95;66.78
63097;BME280;49185;42.320;23.198;2023-04-07T01:37:42;94642.88;;;0.85;68.41
63097;BME280;49185;42.320;23.198;2023-04-07T01:40:09;94642.84;;;0.78;69.06
63097;BME280;49185;42.320;23.198;2023-04-07T01:42:36;94635.47;;;1.58;65.76
63097;BME280;49185;42.320;23.198;2023-04-07T01:45:04;94641.47;;;1.94;64.04
63097;BME280;49185;42.320;23.198;2023-04-07T01:47:31;94633.31;;;1.68;64.59
63097;BME280;49185;42.320;23.198;2023-04-07T01:50:00;94640.75;;;1.65;62.86
63097;BME280;49185;42.320;23.198;2023-04-07T01:52:27;94637.81;;;1.11;65.27
63097;BME280;49185;42.320;23.198;2023-04-07T01:54:53;94646.13;;;0.87;67.05
63097;BME280;49185;42.320;23.198;2023-04-07T01:57:19;94636.34;;;0.74;69.82
63097;BME280;49185;42.320;23.198;2023-04-07T01:59:44;94638.72;;;0.69;70.15
63097;BME280;49185;42.320;23.198;2023-04-07T02:02:10;94642.13;;;0.63;69.51
63097;BME280;49185;42.320;23.198;2023-04-07T02:04:55;94641.75;;;0.66;70.11
63097;BME280;49185;42.320;23.198;2023-04-07T02:07:30;94629.09;;;1.04;68.83
63097;BME280;49185;42.320;23.198;2023-04-07T02:10:01;94636.00;;;1.88;64.72
63097;BME280;49185;42.320;23.198;2023-04-07T02:12:28;94641.59;;;1.02;67.37
63097;BME280;49185;42.320;23.198;2023-04-07T02:14:55;94642.19;;;0.76;68.89
63097;BME280;49185;42.320;23.198;2023-04-07T02:17:23;94640.03;;;0.58;71.86
63097;BME280;49185;42.320;23.198;2023-04-07T02:19:50;94639.56;;;0.48;73.75
63097;BME280;49185;42.320;23.198;2023-04-07T02:22:16;94643.31;;;0.38;74.56
63097;BME280;49185;42.320;23.198;2023-04-07T02:24:42;94646.44;;;0.27;75.85
63097;BME280;49185;42.320;23.198;2023-04-07T02:27:08;94643.13;;;0.18;76.27
63097;BME280;49185;42.320;23.198;2023-04-07T02:29:33;94638.81;;;0.11;75.90
63097;BME280;49185;42.320;23.198;2023-04-07T02:31:59;94636.69;;;-0.01;76.76
63097;BME280;49185;42.320;23.198;2023-04-07T02:34:24;94635.00;;;-0.08;76.88
63097;BME280;49185;42.320;23.198;2023-04-07T02:36:49;94635.00;;;-0.08;75.70
63097;BME280;49185;42.320;23.198;2023-04-07T02:39:15;94628.31;;;-0.11;75.39
63097;BME280;49185;42.320;23.198;2023-04-07T02:41:40;94623.84;;;-0.17;75.47
63097;BME280;49185;42.320;23.198;2023-04-07T02:44:06;94627.00;;;-0.22;76.17
63097;BME280;49185;42.320;23.198;2023-04-07T02:46:31;94621.13;;;0.13;73.43
63097;BME280;49185;42.320;23.198;2023-04-07T02:48:56;94623.00;;;0.90;70.64
63097;BME280;49185;42.320;23.198;2023-04-07T02:51:22;94622.47;;;0.73;71.68
63097;BME280;49185;42.320;23.198;2023-04-07T02:53:47;94625.13;;;1.15;68.96
63097;BME280;49185;42.320;23.198;2023-04-07T02:56:14;94627.19;;;1.20;69.25
63097;BME280;49185;42.320;23.198;2023-04-07T02:58:40;94629.88;;;0.70;71.33
63097;BME280;49185;42.320;23.198;2023-04-07T03:01:05;94625.81;;;0.95;68.75
63097;BME280;49185;42.320;23.198;2023-04-07T03:03:30;94629.78;;;1.13;68.31
63097;BME280;49185;42.320;23.198;2023-04-07T03:05:56;94624.56;;;1.20;67.15
63097;BME280;49185;42.320;23.198;2023-04-07T03:08:21;94631.03;;;1.24;67.31
63097;BME280;49185;42.320;23.198;2023-04-07T03:10:47;94636.09;;;1.25;66.40
63097;BME280;49185;42.320;23.198;2023-04-07T03:13:12;94632.97;;;1.08;66.44
63097;BME280;49185;42.320;23.198;2023-04-07T03:15:37;94635.91;;;0.70;68.39
63097;BME280;49185;42.320;23.198;2023-04-07T03:18:03;94635.34;;;0.47;69.85
63097;BME280;49185;42.320;23.198;2023-04-07T03:20:28;94632.31;;;0.07;71.16
63097;BME280;49185;42.320;23.198;2023-04-07T03:22:54;94625.22;;;0.44;70.58
63097;BME280;49185;42.320;23.198;2023-04-07T03:25:19;94623.03;;;0.47;69.43
63097;BME280;49185;42.320;23.198;2023-04-07T03:27:44;94628.88;;;0.43;69.34
63097;BME280;49185;42.320;23.198;2023-04-07T03:30:10;94621.25;;;0.26;70.36
63097;BME280;49185;42.320;23.198;2023-04-07T03:32:35;94630.25;;;0.67;68.26
63097;BME280;49185;42.320;23.198;2023-04-07T03:35:01;94637.41;;;0.51;68.36
63097;BME280;49185;42.320;23.198;2023-04-07T03:37:26;94636.63;;;1.14;65.88
63097;BME280;49185;42.320;23.198;2023-04-07T03:39:52;94624.25;;;1.29;62.87
63097;BME280;49185;42.320;23.198;2023-04-07T03:42:17;94632.81;;;1.17;64.14
63097;BME280;49185;42.320;23.198;2023-04-07T03:44:43;94635.81;;;0.57;67.40
63097;BME280;49185;42.320;23.198;2023-04-07T03:47:08;94634.22;;;1.12;65.00
63097;BME280;49185;42.320;23.198;2023-04-07T03:49:33;94638.00;;;1.38;62.10
63097;BME280;49185;42.320;23.198;2023-04-07T03:51:59;94644.66;;;1.41;61.65
63097;BME280;49185;42.320;23.198;2023-04-07T03:54:24;94632.38;;;1.48;61.74
63097;BME280;49185;42.320;23.198;2023-04-07T03:56:50;94642.06;;;1.47;61.30
63097;BME280;49185;42.320;23.198;2023-04-07T03:59:15;94643.25;;;1.45;61.48
63097;BME280;49185;42.320;23.198;2023-04-07T04:01:41;94650.78;;;1.55;61.13
63097;BME280;49185;42.320;23.198;2023-04-07T04:04:06;94648.72;;;1.50;61.58
63097;BME280;49185;42.320;23.198;2023-04-07T04:06:31;94646.06;;;1.43;61.44
63097;BME280;49185;42.320;23.198;2023-04-07T04:08:57;94651.47;;;1.35;62.43
63097;BME280;49185;42.320;23.198;2023-04-07T04:11:22;94654.53;;;1.39;61.74
63097;BME280;49185;42.320;23.198;2023-04-07T04:13:48;94649.47;;;1.37;62.43
63097;BME280;49185;42.320;23.198;2023-04-07T04:16:13;94650.78;;;1.55;61.62
63097;BME280;49185;42.320;23.198;2023-04-07T04:18:39;94662.25;;;1.54;61.88
63097;BME280;49185;42.320;23.198;2023-04-07T04:21:06;94662.03;;;1.48;62.39
63097;BME280;49185;42.320;23.198;2023-04-07T04:23:32;94660.56;;;1.39;63.10
63097;BME280;49185;42.320;23.198;2023-04-07T04:25:57;94668.09;;;1.49;62.42
63097;BME280;49185;42.320;23.198;2023-04-07T04:28:23;94667.94;;;0.94;64.38
63097;BME280;49185;42.320;23.198;2023-04-07T04:30:48;94667.84;;;0.59;67.11
63097;BME280;49185;42.320;23.198;2023-04-07T04:33:13;94669.34;;;0.47;66.61
63097;BME280;49185;42.320;23.198;2023-04-07T04:35:39;94674.66;;;0.53;66.42
63097;BME280;49185;42.320;23.198;2023-04-07T04:38:04;94675.13;;;1.48;62.88
63097;BME280;49185;42.320;23.198;2023-04-07T04:40:30;94675.56;;;1.52;62.26
63097;BME280;49185;42.320;23.198;2023-04-07T04:42:55;94673.28;;;1.84;61.03
63097;BME280;49185;42.320;23.198;2023-04-07T04:45:20;94682.34;;;1.75;60.80
63097;BME280;49185;42.320;23.198;2023-04-07T04:47:46;94681.81;;;1.93;60.34
63097;BME280;49185;42.320;23.198;2023-04-07T04:50:11;94670.25;;;1.80;59.60
63097;BME280;49185;42.320;23.198;2023-04-07T04:52:37;94669.44;;;1.38;61.83
63097;BME280;49185;42.320;23.198;2023-04-07T04:55:03;94681.22;;;1.56;62.25
63097;BME280;49185;42.320;23.198;2023-04-07T04:57:28;94679.38;;;1.91;59.80
63097;BME280;49185;42.320;23.198;2023-04-07T04:59:54;94681.84;;;1.99;59.03
63097;BME280;49185;42.320;23.198;2023-04-07T05:02:19;94683.97;;;2.44;57.19
63097;BME280;49185;42.320;23.198;2023-04-07T05:04:44;94668.88;;;2.66;55.54
63097;BME280;49185;42.320;23.198;2023-04-07T05:07:10;94677.56;;;2.87;55.07
63097;BME280;49185;42.320;23.198;2023-04-07T05:09:35;94678.78;;;3.24;54.23
63097;BME280;49185;42.320;23.198;2023-04-07T05:12:01;94678.34;;;3.47;54.33
63097;BME280;49185;42.320;23.198;2023-04-07T05:14:26;94678.72;;;3.57;52.34
63097;BME280;49185;42.320;23.198;2023-04-07T05:16:51;94682.97;;;3.52;52.35
63097;BME280;49185;42.320;23.198;2023-04-07T05:19:17;94678.13;;;4.14;52.53
63097;BME280;49185;42.320;23.198;2023-04-07T05:21:42;94678.44;;;5.45;50.31
63097;BME280;49185;42.320;23.198;2023-04-07T05:24:08;94676.38;;;8.47;42.30
63097;BME280;49185;42.320;23.198;2023-04-07T05:26:33;94674.59;;;10.66;36.75
63097;BME280;49185;42.320;23.198;2023-04-07T05:28:58;94677.47;;;11.14;35.71
63097;BME280;49185;42.320;23.198;2023-04-07T05:31:24;94674.09;;;11.29;34.51
63097;BME280;49185;42.320;23.198;2023-04-07T05:33:49;94669.78;;;11.55;33.81
63097;BME280;49185;42.320;23.198;2023-04-07T05:36:15;94678.34;;;10.43;35.13
63097;BME280;49185;42.320;23.198;2023-04-07T05:38:40;94675.81;;;10.58;35.58
63097;BME280;49185;42.320;23.198;2023-04-07T05:41:05;94674.31;;;10.68;35.44
63097;BME280;49185;42.320;23.198;2023-04-07T05:43:31;94671.78;;;11.05;34.63
63097;BME280;49185;42.320;23.198;2023-04-07T05:45:56;94670.56;;;11.18;34.31
63097;BME280;49185;42.320;23.198;2023-04-07T05:48:22;94677.47;;;11.19;35.01
63097;BME280;49185;42.320;23.198;2023-04-07T05:50:47;94671.13;;;12.58;33.16
63097;BME280;49185;42.320;23.198;2023-04-07T05:53:13;94681.41;;;11.11;35.72
63097;BME280;49185;42.320;23.198;2023-04-07T05:55:41;94681.59;;;11.05;34.78
63097;BME280;49185;42.320;23.198;2023-04-07T05:58:06;94673.63;;;10.77;35.56
63097;BME280;49185;42.320;23.198;2023-04-07T06:00:32;94673.28;;;11.61;35.42
63097;BME280;49185;42.320;23.198;2023-04-07T06:02:58;94680.53;;;12.81;34.24
63097;BME280;49185;42.320;23.198;2023-04-07T06:05:23;94674.47;;;13.22;32.85
63097;BME280;49185;42.320;23.198;2023-04-07T06:07:48;94674.19;;;13.08;31.62
63097;BME280;49185;42.320;23.198;2023-04-07T06:10:14;94686.38;;;12.63;32.31
63097;BME280;49185;42.320;23.198;2023-04-07T06:12:39;94678.47;;;13.29;32.06
63097;BME280;49185;42.320;23.198;2023-04-07T06:15:05;94676.09;;;13.48;31.39
63097;BME280;49185;42.320;23.198;2023-04-07T06:17:30;94673.16;;;13.65;31.14
63097;BME280;49185;42.320;23.198;2023-04-07T06:19:56;94682.56;;;11.53;33.83
63097;BME280;49185;42.320;23.198;2023-04-07T06:22:21;94681.66;;;13.06;31.85
63097;BME280;49185;42.320;23.198;2023-04-07T06:24:47;94678.50;;;13.24;32.24
63097;BME280;49185;42.320;23.198;2023-04-07T06:27:12;94684.88;;;13.23;31.37
63097;BME280;49185;42.320;23.198;2023-04-07T06:29:38;94676.91;;;13.44;30.24
63097;BME280;49185;42.320;23.198;2023-04-07T06:32:03;94672.59;;;13.79;30.68
63097;BME280;49185;42.320;23.198;2023-04-07T06:34:28;94679.31;;;13.51;29.80
63097;BME280;49185;42.320;23.198;2023-04-07T06:36:54;94675.25;;;14.04;27.01
63097;BME280;49185;42.320;23.198;2023-04-07T06:39:19;94679.03;;;13.67;26.65
63097;BME280;49185;42.320;23.198;2023-04-07T06:41:45;94671.91;;;14.43;25.93
63097;BME280;49185;42.320;23.198;2023-04-07T06:44:11;94680.88;;;14.78;25.44
63097;BME280;49185;42.320;23.198;2023-04-07T06:46:36;94680.31;;;12.98;26.27
63097;BME280;49185;42.320;23.198;2023-04-07T06:49:02;94672.59;;;13.74;26.62
63097;BME280;49185;42.320;23.198;2023-04-07T06:51:27;94665.50;;;15.68;23.17
63097;BME280;49185;42.320;23.198;2023-04-07T06:53:53;94673.00;;;15.37;24.91
63097;BME280;49185;42.320;23.198;2023-04-07T06:56:18;94662.81;;;15.68;23.25
63097;BME280;49185;42.320;23.198;2023-04-07T06:58:43;94673.97;;;16.82;23.16
63097;BME280;49185;42.320;23.198;2023-04-07T07:01:09;94672.84;;;15.92;22.20
63097;BME280;49185;42.320;23.198;2023-04-07T07:03:34;94678.03;;;15.44;24.21
63097;BME280;49185;42.320;23.198;2023-04-07T07:06:00;94685.91;;;12.91;27.41
63097;BME280;49185;42.320;23.198;2023-04-07T07:08:26;94686.47;;;13.14;27.77
63097;BME280;49185;42.320;23.198;2023-04-07T07:10:52;94689.03;;;14.37;26.06
63097;BME280;49185;42.320;23.198;2023-04-07T07:13:21;94689.91;;;12.84;26.84
63097;BME280;49185;42.320;23.198;2023-04-07T07:15:47;94685.88;;;14.95;24.94
63097;BME280;49185;42.320;23.198;2023-04-07T07:18:12;94684.66;;;13.56;26.09
63097;BME280;49185;42.320;23.198;2023-04-07T07:20:37;94689.72;;;15.24;25.89
63097;BME280;49185;42.320;23.198;2023-04-07T07:23:03;94689.22;;;15.16;25.33
63097;BME280;49185;42.320;23.198;2023-04-07T07:25:28;94698.22;;;13.13;26.52
63097;BME280;49185;42.320;23.198;2023-04-07T07:27:54;94696.28;;;11.07;31.45
63097;BME280;49185;42.320;23.198;2023-04-07T07:30:21;94702.56;;;13.50;27.61
63097;BME280;49185;42.320;23.198;2023-04-07T07:32:47;94699.41;;;11.96;28.10
63097;BME280;49185;42.320;23.198;2023-04-07T07:35:12;94701.91;;;10.83;30.84
63097;BME280;49185;42.320;23.198;2023-04-07T07:37:37;94696.66;;;13.84;27.82
63097;BME280;49185;42.320;23.198;2023-04-07T07:40:03;94700.38;;;13.98;25.29
63097;BME280;49185;42.320;23.198;2023-04-07T07:42:29;94697.75;;;13.73;25.75
63097;BME280;49185;42.320;23.198;2023-04-07T07:44:56;94698.38;;;14.50;25.89
63097;BME280;49185;42.320;23.198;2023-04-07T07:47:21;94696.25;;;14.47;25.74
63097;BME280;49185;42.320;23.198;2023-04-07T07:49:47;94707.88;;;14.07;26.64
63097;BME280;49185;42.320;23.198;2023-04-07T07:52:12;94713.13;;;12.88;27.99
63097;BME280;49185;42.320;23.198;2023-04-07T07:54:37;94702.84;;;13.74;27.14
63097;BME280;49185;42.320;23.198;2023-04-07T07:57:03;94704.66;;;13.22;27.15
63097;BME280;49185;42.320;23.198;2023-04-07T07:59:29;94697.50;;;14.75;24.96
63097;BME280;49185;42.320;23.198;2023-04-07T08:01:55;94698.81;;;14.78;24.08
63097;BME280;49185;42.320;23.198;2023-04-07T08:04:20;94705.69;;;14.29;26.07
63097;BME280;49185;42.320;23.198;2023-04-07T08:06:45;94702.44;;;12.73;28.16
63097;BME280;49185;42.320;23.198;2023-04-07T08:09:11;94706.41;;;12.70;26.76
63097;BME280;49185;42.320;23.198;2023-04-07T08:11:37;94710.81;;;13.90;27.15
63097;BME280;49185;42.320;23.198;2023-04-07T08:14:02;94711.34;;;13.20;27.39
63097;BME280;49185;42.320;23.198;2023-04-07T08:16:28;94706.31;;;13.75;26.86
63097;BME280;49185;42.320;23.198;2023-04-07T08:18:53;94700.94;;;13.49;26.70
63097;BME280;49185;42.320;23.198;2023-04-07T08:21:19;94697.50;;;13.74;28.54
63097;BME280;49185;42.320;23.198;2023-04-07T08:23:44;94699.59;;;14.84;27.58
63097;BME280;49185;42.320;23.198;2023-04-07T08:26:09;94696.06;;;14.13;27.46
63097;BME280;49185;42.320;23.198;2023-04-07T08:28:35;94698.97;;;14.27;28.14
63097;BME280;49185;42.320;23.198;2023-04-07T08:31:00;94699.34;;;13.68;27.87
63097;BME280;49185;42.320;23.198;2023-04-07T08:33:26;94694.28;;;13.67;28.18
63097;BME280;49185;42.320;23.198;2023-04-07T08:35:51;94694.50;;;11.50;31.54
63097;BME280;49185;42.320;23.198;2023-04-07T08:38:16;94688.84;;;12.95;27.96
63097;BME280;49185;42.320;23.198;2023-04-07T08:40:42;94687.81;;;13.17;29.58
63097;BME280;49185;42.320;23.198;2023-04-07T08:43:08;94688.53;;;12.76;29.78
63097;BME280;49185;42.320;23.198;2023-04-07T08:45:38;94690.25;;;13.28;28.87
63097;BME280;49185;42.320;23.198;2023-04-07T08:48:15;94681.44;;;13.64;29.46
63097;BME280;49185;42.320;23.198;2023-04-07T08:50:43;94675.22;;;14.85;26.39
63097;BME280;49185;42.320;23.198;2023-04-07T08:53:12;94680.91;;;14.73;25.14
63097;BME280;49185;42.320;23.198;2023-04-07T08:55:38;94683.53;;;13.05;27.57
63097;BME280;49185;42.320;23.198;2023-04-07T08:58:03;94678.09;;;12.59;29.07
63097;BME280;49185;42.320;23.198;2023-04-07T09:00:29;94680.56;;;12.13;30.17
63097;BME280;49185;42.320;23.198;2023-04-07T09:02:55;94685.59;;;10.75;31.73
63097;BME280;49185;42.320;23.198;2023-04-07T09:05:21;94678.84;;;11.96;31.27
63097;BME280;49185;42.320;23.198;2023-04-07T09:07:47;94674.09;;;14.26;26.71
63097;BME280;49185;42.320;23.198;2023-04-07T09:10:12;94672.66;;;14.54;26.89
63097;BME280;49185;42.320;23.198;2023-04-07T09:12:38;94690.25;;;13.70;30.44
63097;BME280;49185;42.320;23.198;2023-04-07T09:15:05;94675.53;;;13.82;26.50
63097;BME280;49185;42.320;23.198;2023-04-07T09:17:31;94680.00;;;14.18;27.89
63097;BME280;49185;42.320;23.198;2023-04-07T09:19:58;94674.59;;;14.98;26.86
63097;BME280;49185;42.320;23.198;2023-04-07T09:22:38;94686.72;;;14.05;27.94
63097;BME280;49185;42.320;23.198;2023-04-07T09:27:38;94670.50;;;13.50;27.00
63097;BME280;49185;42.320;23.198;2023-04-07T09:30:13;94668.72;;;11.99;31.43
63097;BME280;49185;42.320;23.198;2023-04-07T09:32:39;94665.53;;;11.96;32.09
63097;BME280;49185;42.320;23.198;2023-04-07T09:35:04;94684.03;;;11.06;31.60
63097;BME280;49185;42.320;23.198;2023-04-07T09:37:30;94669.88;;;11.70;30.66
63097;BME280;49185;42.320;23.198;2023-04-07T09:39:55;94667.78;;;13.04;28.95
63097;BME280;49185;42.320;23.198;2023-04-07T09:42:21;94662.88;;;14.19;27.46
63097;BME280;49185;42.320;23.198;2023-04-07T09:44:46;94652.44;;;15.62;25.78
63097;BME280;49185;42.320;23.198;2023-04-07T09:47:12;94652.66;;;14.96;24.16
63097;BME280;49185;42.320;23.198;2023-04-07T09:49:51;94659.41;;;14.18;25.96
63097;BME280;49185;42.320;23.198;2023-04-07T09:52:17;94664.03;;;13.25;28.34
63097;BME280;49185;42.320;23.198;2023-04-07T09:54:42;94668.09;;;12.29;28.54
63097;BME280;49185;42.320;23.198;2023-04-07T09:57:09;94664.53;;;12.08;28.36
63097;BME280;49185;42.320;23.198;2023-04-07T09:59:40;94666.81;;;12.42;27.74
63097;BME280;49185;42.320;23.198;2023-04-07T10:02:07;94661.47;;;12.37;28.44
63097;BME280;49185;42.320;23.198;2023-04-07T10:04:32;94667.69;;;12.63;28.54
63097;BME280;49185;42.320;23.198;2023-04-07T10:06:58;94670.81;;;11.91;30.84
63097;BME280;49185;42.320;23.198;2023-04-07T10:09:26;94659.97;;;11.61;31.26
63097;BME280;49185;42.320;23.198;2023-04-07T10:11:52;94654.56;;;11.93;31.48
63097;BME280;49185;42.320;23.198;2023-04-07T10:14:20;94658.63;;;10.93;30.47
63097;BME280;49185;42.320;23.198;2023-04-07T10:16:46;94666.31;;;10.18;33.48
63097;BME280;49185;42.320;23.198;2023-04-07T10:19:13;94663.84;;;10.34;33.83
63097;BME280;49185;42.320;23.198;2023-04-07T10:21:40;94657.22;;;10.86;31.81
63097;BME280;49185;42.320;23.198;2023-04-07T10:24:25;94663.69;;;10.95;32.15
63097;BME280;49185;42.320;23.198;2023-04-07T10:26:59;94661.75;;;12.45;29.10
63097;BME280;49185;42.320;23.198;2023-04-07T10:29:32;94662.22;;;13.62;28.02
63097;BME280;49185;42.320;23.198;2023-04-07T10:32:00;94663.44;;;12.77;28.16
63097;BME280;49185;42.320;23.198;2023-04-07T10:37:17;94658.00;;;11.88;32.06
63097;BME280;49185;42.320;23.198;2023-04-07T10:39:42;94669.75;;;11.17;32.66
63097;BME280;49185;42.320;23.198;2023-04-07T10:45:06;94663.06;;;10.55;30.93
63097;BME280;49185;42.320;23.198;2023-04-07T10:47:32;94668.63;;;10.81;32.51
63097;BME280;49185;42.320;23.198;2023-04-07T10:52:42;94659.72;;;11.62;32.12
63097;BME280;49185;42.320;23.198;2023-04-07T10:55:27;94660.78;;;11.29;31.98
63097;BME280;49185;42.320;23.198;2023-04-07T10:58:12;94662.53;;;11.13;32.36
63097;BME280;49185;42.320;23.198;2023-04-07T11:00:37;94669.97;;;11.43;30.71
63097;BME280;49185;42.320;23.198;2023-04-07T11:03:10;94661.53;;;11.24;30.73
63097;BME280;49185;42.320;23.198;2023-04-07T11:05:36;94661.66;;;10.75;32.30
63097;BME280;49185;42.320;23.198;2023-04-07T11:08:01;94661.88;;;11.00;32.10
63097;BME280;49185;42.320;23.198;2023-04-07T11:10:27;94656.06;;;11.04;32.40
63097;BME280;49185;42.320;23.198;2023-04-07T11:13:02;94658.63;;;10.66;32.88
63097;BME280;49185;42.320;23.198;2023-04-07T11:15:28;94652.06;;;11.06;31.10
63097;BME280;49185;42.320;23.198;2023-04-07T11:18:20;94650.50;;;11.80;30.47
63097;BME280;49185;42.320;23.198;2023-04-07T11:20:46;94647.25;;;12.21;30.58
63097;BME280;49185;42.320;23.198;2023-04-07T11:23:14;94649.69;;;12.38;31.09
63097;BME280;49185;42.320;23.198;2023-04-07T11:25:45;94646.09;;;12.85;29.54
63097;BME280;49185;42.320;23.198;2023-04-07T11:28:11;94643.22;;;12.08;30.51
63097;BME280;49185;42.320;23.198;2023-04-07T11:30:38;94646.09;;;12.01;31.50
63097;BME280;49185;42.320;23.198;2023-04-07T11:33:04;94637.22;;;12.53;30.83
63097;BME280;49185;42.320;23.198;2023-04-07T11:35:30;94641.72;;;12.43;31.42
63097;BME280;49185;42.320;23.198;2023-04-07T11:37:59;94637.97;;;11.86;31.57
63097;BME280;49185;42.320;23.198;2023-04-07T11:40:33;94642.63;;;11.58;32.20
63097;BME280;49185;42.320;23.198;2023-04-07T11:42:58;94639.84;;;11.43;32.14
63097;BME280;49185;42.320;23.198;2023-04-07T11:45:24;94643.16;;;10.90;32.60
63097;BME280;49185;42.320;23.198;2023-04-07T11:47:49;94636.88;;;11.34;31.91
63097;BME280;49185;42.320;23.198;2023-04-07T11:50:14;94624.78;;;11.58;30.97
63097;BME280;49185;42.320;23.198;2023-04-07T11:52:44;94635.00;;;12.25;30.10
63097;BME280;49185;42.320;23.198;2023-04-07T11:55:18;94631.09;;;12.53;31.65
63097;BME280;49185;42.320;23.198;2023-04-07T11:57:43;94624.41;;;12.45;30.03
63097;BME280;49185;42.320;23.198;2023-04-07T12:00:11;94625.53;;;12.65;30.29
63097;BME280;49185;42.320;23.198;2023-04-07T12:02:37;94622.34;;;13.76;28.86
63097;BME280;49185;42.320;23.198;2023-04-07T12:05:03;94616.47;;;13.22;28.58
63097;BME280;49185;42.320;23.198;2023-04-07T12:07:29;94621.53;;;12.83;28.69
63097;BME280;49185;42.320;23.198;2023-04-07T12:09:54;94619.19;;;13.48;28.98
63097;BME280;49185;42.320;23.198;2023-04-07T12:12:27;94618.28;;;13.94;26.94
63097;BME280;49185;42.320;23.198;2023-04-07T12:14:54;94608.03;;;14.16;30.87
63097;BME280;49185;42.320;23.198;2023-04-07T12:17:25;94604.31;;;14.12;30.23
63097;BME280;49185;42.320;23.198;2023-04-07T12:19:51;94618.59;;;13.72;28.15
63097;BME280;49185;42.320;23.198;2023-04-07T12:22:17;94611.50;;;12.11;29.73
63097;BME280;49185;42.320;23.198;2023-04-07T12:24:42;94614.25;;;12.42;30.77
63097;BME280;49185;42.320;23.198;2023-04-07T12:27:08;94606.34;;;13.24;29.56
63097;BME280;49185;42.320;23.198;2023-04-07T12:29:33;94603.69;;;13.04;30.92
63097;BME280;49185;42.320;23.198;2023-04-07T12:31:59;94609.25;;;12.71;30.87
63097;BME280;49185;42.320;23.198;2023-04-07T12:34:24;94607.91;;;13.72;30.53
63097;BME280;49185;42.320;23.198;2023-04-07T12:36:49;94609.00;;;13.65;29.83
63097;BME280;49185;42.320;23.198;2023-04-07T12:39:15;94610.66;;;14.32;31.12
63097;BME280;49185;42.320;23.198;2023-04-07T12:41:41;94606.59;;;13.69;29.46
63097;BME280;49185;42.320;23.198;2023-04-07T12:44:06;94605.28;;;13.30;29.76
63097;BME280;49185;42.320;23.198;2023-04-07T12:46:32;94603.44;;;12.01;30.22
63097;BME280;49185;42.320;23.198;2023-04-07T12:48:57;94608.22;;;11.99;31.84
63097;BME280;49185;42.320;23.198;2023-04-07T12:51:23;94596.78;;;11.56;33.26
63097;BME280;49185;42.320;23.198;2023-04-07T12:53:49;94609.72;;;11.37;32.52
63097;BME280;49185;42.320;23.198;2023-04-07T12:56:15;94606.78;;;11.33;33.24
63097;BME280;49185;42.320;23.198;2023-04-07T12:58:40;94601.66;;;11.69;32.55
63097;BME280;49185;42.320;23.198;2023-04-07T13:01:05;94606.81;;;11.38;31.17
63097;BME280;49185;42.320;23.198;2023-04-07T13:03:31;94610.47;;;11.32;32.40
63097;BME280;49185;42.320;23.198;2023-04-07T13:05:56;94602.88;;;11.94;32.27